Time;durP1;ratioP1;P1;durP2;ratioP2;P2;SDS_P1;SDS_P2;PMS_P1;PMS_P2;Temp;Humidity;BMP_temperature;BMP_pressure;BME280_temperature;BME280_humidity;BME280_pressure;Samples;Min_cycle;Max_cycle;Signal;HPM_P1;HPM_P2
2022/01/16 00:01:44;;;;;;;39.63;17.20;;;;;;;5.11;81.57;101494.75;5094571;28;20659;-64
2022/01/16 00:04:11;;;;;;;35.67;16.93;;;;;;;4.94;82.19;101477.31;5094461;28;20292;-63
2022/01/16 00:06:41;;;;;;;45.57;18.47;;;;;;;4.80;82.79;101475.50;5096764;28;20233;-64
2022/01/16 00:09:12;;;;;;;44.87;19.20;;;;;;;4.99;81.94;101467.41;5095436;28;20241;-63
2022/01/16 00:11:41;;;;;;;43.50;18.80;;;;;;;4.64;83.89;101479.06;5094394;28;20229;-63
2022/01/16 00:14:09;;;;;;;43.60;19.40;;;;;;;4.86;83.03;101497.94;5104566;28;20425;-64
2022/01/16 00:16:39;;;;;;;43.00;18.10;;;;;;;4.88;82.67;101486.44;5095785;28;20198;-63
2022/01/16 00:19:07;;;;;;;43.43;18.80;;;;;;;4.26;85.37;101500.41;5094581;28;20895;-64
2022/01/16 00:21:39;;;;;;;45.10;19.57;;;;;;;4.68;83.85;101499.81;5095550;28;20241;-64
2022/01/16 00:24:08;;;;;;;43.30;19.33;;;;;;;4.83;83.00;101500.78;5096433;28;20236;-64
2022/01/16 00:26:38;;;;;;;42.27;18.53;;;;;;;4.97;82.06;101482.41;5091574;28;20234;-64
2022/01/16 00:29:07;;;;;;;45.50;20.67;;;;;;;4.47;83.94;101456.38;5093077;28;20654;-64
2022/01/16 00:31:37;;;;;;;43.57;20.23;;;;;;;4.04;86.46;101469.22;5094244;28;20547;-64
2022/01/16 00:34:05;;;;;;;46.03;21.53;;;;;;;4.59;84.77;101452.19;5098828;28;20480;-63
2022/01/16 00:36:32;;;;;;;42.40;21.10;;;;;;;4.68;84.09;101449.06;5107856;28;20244;-63
2022/01/16 00:39:00;;;;;;;48.13;21.07;;;;;;;4.21;86.25;101472.72;5109451;27;20466;-63
2022/01/16 00:41:28;;;;;;;49.63;21.33;;;;;;;4.51;85.39;101463.13;5103146;28;20205;-63
2022/01/16 00:43:57;;;;;;;48.63;22.50;;;;;;;4.86;83.24;101459.38;5096175;27;20240;-63
2022/01/16 00:46:25;;;;;;;54.60;22.40;;;;;;;4.04;86.84;101477.09;5107933;27;20223;-63
2022/01/16 00:48:52;;;;;;;49.47;22.00;;;;;;;4.12;86.40;101474.91;5105468;28;20301;-63
2022/01/16 00:51:20;;;;;;;47.20;22.03;;;;;;;4.70;84.75;101487.47;5103837;27;20213;-64
2022/01/16 00:53:48;;;;;;;47.67;22.33;;;;;;;4.33;85.73;101490.41;5104259;28;20790;-63
2022/01/16 00:56:16;;;;;;;46.80;21.80;;;;;;;3.90;88.19;101508.47;5101861;27;20241;-63
2022/01/16 00:58:44;;;;;;;49.33;21.80;;;;;;;4.18;86.65;101496.50;5108726;27;20300;-64
2022/01/16 01:01:14;;;;;;;51.40;23.53;;;;;;;3.93;87.55;101497.81;5104283;27;20233;-64
2022/01/16 01:03:42;;;;;;;50.00;22.57;;;;;;;4.16;88.31;101483.44;5106098;27;20221;-64
2022/01/16 01:06:10;;;;;;;49.27;21.83;;;;;;;3.87;89.04;101497.28;5103727;28;20209;-64
2022/01/16 01:08:37;;;;;;;43.67;19.43;;;;;;;3.56;89.46;101492.78;5104026;27;20292;-64
2022/01/16 01:11:10;;;;;;;51.27;21.77;;;;;;;3.82;88.54;101500.13;5116494;27;20852;-63
2022/01/16 01:13:56;;;;;;;47.63;23.03;;;;;;;3.62;90.08;101484.56;5104598;27;20243;-63
2022/01/16 01:16:27;;;;;;;45.10;21.03;;;;;;;3.63;90.18;101497.63;5101547;27;20212;-64
2022/01/16 01:18:55;;;;;;;45.17;21.83;;;;;;;3.73;89.66;101500.63;5110481;27;20231;-64
2022/01/16 01:21:28;;;;;;;54.83;22.73;;;;;;;3.71;89.20;101500.69;5106121;27;20215;-64
2022/01/16 01:23:57;;;;;;;46.90;21.53;;;;;;;3.78;88.59;101496.00;5103144;28;20305;-63
2022/01/16 01:26:30;;;;;;;52.80;22.60;;;;;;;3.50;89.31;101430.16;5100430;27;20304;-64
2022/01/16 01:28:57;;;;;;;47.10;22.27;;;;;;;3.84;88.78;101395.97;5099704;28;20217;-64
2022/01/16 01:31:29;;;;;;;46.17;21.53;;;;;;;3.58;88.92;101394.72;5099546;27;20399;-64
2022/01/16 01:33:58;;;;;;;49.67;22.57;;;;;;;3.96;87.43;101410.22;5090407;28;20823;-64
2022/01/16 01:36:26;;;;;;;50.07;22.30;;;;;;;3.88;87.29;101410.59;5102829;27;20665;-64
2022/01/16 01:38:53;;;;;;;43.47;19.80;;;;;;;3.74;86.42;101410.50;5107830;27;20666;-64
2022/01/16 01:41:21;;;;;;;44.60;20.87;;;;;;;3.90;86.43;101434.97;5108561;27;20737;-63
2022/01/16 01:52:07;;;;;;;48.17;21.13;;;;;;;3.08;91.99;101470.72;5111080;27;20299;-64
2022/01/16 01:54:34;;;;;;;47.63;21.87;;;;;;;2.93;92.22;101463.59;5102080;27;20678;-63
2022/01/16 01:57:02;;;;;;;46.53;21.57;;;;;;;2.69;94.39;101485.75;5106480;27;20215;-64
2022/01/16 01:59:31;;;;;;;47.30;21.50;;;;;;;2.83;93.32;101478.06;5103386;28;20219;-64
2022/01/16 02:02:00;;;;;;;46.67;22.17;;;;;;;3.02;92.00;101473.63;5108204;27;20306;-64
2022/01/16 02:04:27;;;;;;;49.10;21.00;;;;;;;3.44;89.99;101477.66;5103713;28;20315;-65
2022/01/16 02:06:55;;;;;;;45.17;20.47;;;;;;;3.39;89.46;101486.63;5108211;27;20220;-64
2022/01/16 02:09:23;;;;;;;45.37;20.30;;;;;;;3.51;89.80;101485.16;5105223;28;20230;-63
2022/01/16 02:11:52;;;;;;;45.87;20.37;;;;;;;3.13;90.00;101488.84;5114115;27;20891;-64
2022/01/16 02:14:28;;;;;;;50.40;20.77;;;;;;;3.20;90.92;101500.72;5113402;27;20345;-64
2022/01/16 02:28:09;;;;;;;55.80;23.03;;;;;;;3.56;88.57;101485.75;5114939;27;20643;-65
2022/01/16 02:36:22;;;;;;;56.93;23.43;;;;;;;3.08;92.36;101470.72;5082475;28;20246;-63
2022/01/16 02:38:51;;;;;;;55.53;22.73;;;;;;;2.83;93.68;101464.97;5100609;27;20209;-63
2022/01/16 02:41:19;;;;;;;54.20;22.67;;;;;;;3.19;91.19;101468.41;5092782;28;20216;-64
2022/01/16 02:43:50;;;;;;;56.27;21.77;;;;;;;3.44;90.63;101462.75;5093953;28;20229;-63
2022/01/16 02:49:03;;;;;;;55.30;20.80;;;;;;;3.39;89.19;101468.25;5097633;28;20209;-64
2022/01/16 02:51:31;;;;;;;52.67;21.57;;;;;;;3.37;89.22;101469.25;5097745;28;20220;-63
2022/01/16 02:54:01;;;;;;;51.90;21.60;;;;;;;3.38;89.35;101466.56;5095922;28;20956;-63
2022/01/16 02:56:28;;;;;;;50.57;21.47;;;;;;;3.63;88.69;101452.19;5097369;28;20350;-63
2022/01/16 02:58:56;;;;;;;55.10;21.33;;;;;;;3.26;90.97;101446.19;5098291;28;20219;-64
2022/01/16 03:01:24;;;;;;;49.37;20.73;;;;;;;3.49;88.99;101441.56;5096394;28;20212;-63
2022/01/16 03:03:52;;;;;;;48.17;21.53;;;;;;;3.65;87.82;101439.84;5096863;28;20234;-64
2022/01/16 03:06:19;;;;;;;47.50;20.50;;;;;;;3.34;90.40;101441.41;5098644;28;20212;-64
2022/01/16 03:08:47;;;;;;;53.33;21.50;;;;;;;3.12;90.35;101453.91;5108858;27;20214;-64
2022/01/16 03:11:22;;;;;;;51.23;20.47;;;;;;;2.88;93.55;101448.13;5100308;27;20204;-64
2022/01/16 03:13:50;;;;;;;51.30;21.17;;;;;;;3.48;89.66;101443.34;5092154;28;20293;-66
2022/01/16 03:16:20;;;;;;;50.00;20.47;;;;;;;3.38;89.04;101442.97;5088589;28;20223;-63
2022/01/16 03:21:54;;;;;;;51.10;20.97;;;;;;;3.45;88.65;101440.00;5096490;28;20209;-64
2022/01/16 03:24:25;;;;;;;49.33;20.63;;;;;;;3.22;89.77;101428.94;5091719;28;20224;-64
2022/01/16 03:26:56;;;;;;;50.03;20.70;;;;;;;3.47;88.39;101431.16;5092575;28;20233;-63
2022/01/16 03:29:24;;;;;;;54.20;21.80;;;;;;;3.28;89.63;101420.75;5095864;27;20209;-64
2022/01/16 03:31:52;;;;;;;52.47;21.10;;;;;;;3.18;90.33;101424.78;5093755;28;20560;-64
2022/01/16 03:34:20;;;;;;;54.13;21.97;;;;;;;3.55;89.37;101422.88;5096822;28;20286;-64
2022/01/16 03:36:48;;;;;;;51.53;21.37;;;;;;;3.55;88.25;101428.13;5097497;27;20248;-64
2022/01/16 03:39:17;;;;;;;49.80;21.13;;;;;;;3.71;87.46;101423.75;5094985;28;20443;-64
2022/01/16 03:41:45;;;;;;;52.33;21.67;;;;;;;4.09;85.13;101425.19;5096236;28;20235;-63
2022/01/16 03:44:14;;;;;;;49.00;19.60;;;;;;;3.55;87.47;101409.75;5095570;28;20595;-64
2022/01/16 03:46:44;;;;;;;53.07;21.57;;;;;;;3.98;86.16;101411.78;5093362;28;20204;-64
2022/01/16 03:49:14;;;;;;;46.73;20.70;;;;;;;4.08;84.90;101420.88;5091393;28;20208;-64
2022/01/16 03:51:44;;;;;;;46.67;20.43;;;;;;;4.07;85.76;101428.81;5093689;28;20208;-64
2022/01/16 03:54:15;;;;;;;46.20;20.40;;;;;;;4.18;84.84;101418.59;5104222;28;20205;-64
2022/01/16 03:56:43;;;;;;;45.77;19.20;;;;;;;4.21;84.30;101417.59;5084830;28;20209;-65
2022/01/16 03:59:12;;;;;;;52.10;20.93;;;;;;;4.31;83.01;101424.03;5103445;28;20227;-64
2022/01/16 04:01:42;;;;;;;46.87;19.23;;;;;;;4.39;82.45;101416.56;5101273;28;20853;-65
2022/01/16 04:04:10;;;;;;;43.27;19.50;;;;;;;4.06;83.88;101422.72;5096166;28;20239;-64
2022/01/16 04:06:38;;;;;;;41.53;18.13;;;;;;;4.43;82.73;101400.53;5094906;28;20208;-64
2022/01/16 04:09:06;;;;;;;41.30;19.00;;;;;;;4.41;82.96;101405.03;5094693;28;20219;-63
2022/01/16 04:11:34;;;;;;;41.70;19.37;;;;;;;4.52;81.77;101407.03;5096021;28;20209;-64
2022/01/16 04:14:08;;;;;;;42.30;19.60;;;;;;;4.46;82.30;101410.03;5106894;28;20352;-64
2022/01/16 04:16:37;;;;;;;44.20;18.80;;;;;;;4.22;82.70;101419.28;5097383;28;20237;-64
2022/01/16 04:19:06;;;;;;;43.87;20.10;;;;;;;4.36;82.67;101414.09;5106055;27;20296;-64
2022/01/16 04:21:34;;;;;;;41.00;17.87;;;;;;;4.61;81.38;101411.78;5098010;27;20213;-64
2022/01/16 04:24:02;;;;;;;43.50;18.73;;;;;;;4.15;83.01;101409.09;5099459;27;20220;-64
2022/01/16 04:26:30;;;;;;;41.90;18.33;;;;;;;4.37;82.68;101407.91;5108282;27;20234;-64
2022/01/16 04:28:57;;;;;;;41.47;19.53;;;;;;;4.15;82.82;101409.09;5098570;28;20219;-64
2022/01/16 04:31:25;;;;;;;44.67;19.53;;;;;;;4.44;82.01;101414.50;5097828;27;20529;-65
2022/01/16 04:33:53;;;;;;;42.37;18.80;;;;;;;4.64;81.14;101414.25;5103059;27;20256;-64
2022/01/16 04:36:22;;;;;;;45.40;19.97;;;;;;;4.26;82.44;101402.41;5101850;27;20198;-65
2022/01/16 04:38:52;;;;;;;46.10;18.87;;;;;;;3.78;83.93;101404.16;5101455;28;20211;-64
2022/01/16 04:44:06;;;;;;;46.23;20.43;;;;;;;3.96;83.85;101412.84;5094267;28;20617;-64
2022/01/16 04:46:35;;;;;;;44.93;19.20;;;;;;;4.32;82.36;101409.94;5098962;28;20241;-64
2022/01/16 04:49:04;;;;;;;46.23;19.80;;;;;;;4.07;83.68;101421.78;5097894;28;20231;-64
2022/01/16 04:51:33;;;;;;;50.87;21.13;;;;;;;4.14;82.77;101417.03;5099074;28;20561;-65
2022/01/16 04:54:01;;;;;;;47.17;20.87;;;;;;;4.08;83.61;101425.28;5096882;28;20210;-64
2022/01/16 04:56:28;;;;;;;52.13;20.53;;;;;;;4.31;82.37;101431.91;5097695;27;20651;-64
2022/01/16 04:58:57;;;;;;;50.87;21.43;;;;;;;4.26;81.72;101420.78;5103728;27;20221;-63
2022/01/16 05:01:25;;;;;;;52.70;21.60;;;;;;;4.03;81.97;101425.53;5100608;28;20240;-64
2022/01/16 05:03:53;;;;;;;52.27;21.20;;;;;;;3.83;82.60;101417.88;5106639;27;20251;-63
2022/01/16 05:06:21;;;;;;;45.37;19.53;;;;;;;3.91;82.73;101420.94;5103735;27;20689;-63
2022/01/16 05:08:50;;;;;;;48.90;19.53;;;;;;;3.94;81.73;101428.66;5096828;28;20213;-63
2022/01/16 05:11:24;;;;;;;47.87;20.57;;;;;;;3.79;82.56;101427.69;5102102;27;20208;-64
2022/01/16 05:16:37;;;;;;;49.93;19.53;;;;;;;3.61;83.36;101436.50;5078219;28;22431;-64
2022/01/16 05:19:10;;;;;;;47.47;18.93;;;;;;;3.36;84.98;101430.84;5074475;28;21018;-64
2022/01/16 05:21:38;;;;;;;46.33;18.60;;;;;;;3.76;83.56;101434.88;5075672;28;20222;-63
2022/01/16 05:24:10;;;;;;;48.00;19.37;;;;;;;3.87;82.97;101434.31;5077525;28;20217;-63
2022/01/16 05:26:40;;;;;;;46.13;18.47;;;;;;;3.66;83.25;101433.66;5077464;28;20231;-63
2022/01/16 05:29:08;;;;;;;49.53;20.00;;;;;;;3.35;84.75;101435.25;5077896;28;20296;-63
2022/01/16 05:31:35;;;;;;;46.03;18.20;;;;;;;3.18;86.01;101440.50;5077944;28;20622;-63
2022/01/16 05:34:04;;;;;;;48.57;20.50;;;;;;;2.97;86.58;101425.88;5082026;28;20236;-63
2022/01/16 05:36:32;;;;;;;47.83;19.67;;;;;;;3.29;86.75;101432.94;5080529;28;20209;-64
2022/01/16 05:38:59;;;;;;;53.10;19.77;;;;;;;3.12;85.72;101438.19;5077507;28;20220;-63
2022/01/16 05:41:28;;;;;;;55.10;19.63;;;;;;;3.45;85.11;101443.47;5075001;28;20210;-64
2022/01/16 05:43:56;;;;;;;48.73;19.43;;;;;;;3.90;82.64;101463.84;5075661;28;20221;-64
2022/01/16 05:46:24;;;;;;;46.07;18.27;;;;;;;3.65;83.58;101459.03;5081911;28;20260;-64
2022/01/16 05:48:52;;;;;;;49.77;19.27;;;;;;;3.56;84.03;101453.44;5087250;28;20235;-64
2022/01/16 05:51:20;;;;;;;50.10;19.27;;;;;;;3.55;83.19;101449.09;5077153;28;20628;-63
2022/01/16 05:53:50;;;;;;;49.53;19.53;;;;;;;3.46;83.62;101450.44;5075295;28;20219;-64
2022/01/16 05:56:18;;;;;;;47.83;18.23;;;;;;;3.35;83.52;101453.59;5074822;28;20585;-64
2022/01/16 05:58:47;;;;;;;43.87;16.97;;;;;;;3.51;83.45;101463.31;5076067;28;20198;-64
2022/01/16 06:01:15;;;;;;;46.53;18.00;;;;;;;3.53;83.49;101457.03;5078827;28;20947;-63
2022/01/16 06:03:42;;;;;;;45.53;17.43;;;;;;;3.75;81.78;101462.03;5074421;28;20215;-65
2022/01/16 06:06:10;;;;;;;43.37;17.23;;;;;;;3.83;81.78;101449.38;5074156;28;20254;-64
2022/01/16 06:08:39;;;;;;;40.27;18.00;;;;;;;4.05;80.36;101470.91;5079181;28;20206;-64
2022/01/16 06:11:06;;;;;;;44.00;17.10;;;;;;;3.66;81.36;101475.63;5076166;28;20213;-64
2022/01/16 06:13:34;;;;;;;43.00;17.63;;;;;;;3.61;82.53;101481.09;5088942;28;20252;-64
2022/01/16 06:16:04;;;;;;;45.83;18.40;;;;;;;3.76;81.14;101488.19;5097787;28;20949;-63
2022/01/16 06:18:32;;;;;;;42.53;17.93;;;;;;;3.91;80.92;101494.41;5096730;28;20281;-64
2022/01/16 06:20:59;;;;;;;41.83;17.27;;;;;;;3.46;82.32;101497.63;5094972;28;20218;-64
2022/01/16 06:23:27;;;;;;;43.30;18.77;;;;;;;3.84;80.77;101507.94;5093196;28;20661;-63
2022/01/16 06:25:55;;;;;;;42.93;19.30;;;;;;;4.02;79.88;101505.19;5094782;27;20238;-64
2022/01/16 06:28:23;;;;;;;42.83;18.10;;;;;;;3.90;79.38;101513.69;5096985;28;20213;-64
2022/01/16 06:30:51;;;;;;;44.70;18.80;;;;;;;4.20;78.10;101499.91;5098732;28;20205;-65
2022/01/16 06:33:20;;;;;;;43.53;19.50;;;;;;;4.14;76.98;101511.56;5096159;28;20204;-64
2022/01/16 06:35:48;;;;;;;42.83;19.50;;;;;;;3.64;78.31;101506.34;5093143;28;20786;-64
2022/01/16 06:38:16;;;;;;;47.47;20.40;;;;;;;3.91;78.06;101504.91;5095701;28;20209;-64
2022/01/16 06:40:44;;;;;;;45.03;20.00;;;;;;;3.87;77.54;101505.97;5107471;27;20254;-63
2022/01/16 06:43:12;;;;;;;40.77;18.80;;;;;;;3.81;77.96;101503.69;5105239;27;20387;-63
2022/01/16 06:45:39;;;;;;;47.30;20.50;;;;;;;3.84;78.19;101510.56;5104871;28;20682;-63
2022/01/16 06:48:07;;;;;;;44.90;20.77;;;;;;;3.84;77.90;101519.28;5108507;27;20571;-63
2022/01/16 06:50:37;;;;;;;48.43;19.87;;;;;;;3.76;77.81;101526.72;5104438;28;20250;-64
2022/01/16 06:53:04;;;;;;;50.50;22.17;;;;;;;3.74;78.52;101531.19;5100056;28;20205;-64
2022/01/16 06:55:32;;;;;;;47.07;20.07;;;;;;;3.83;78.75;101541.19;5097129;28;20280;-64
2022/01/16 06:58:00;;;;;;;54.03;21.43;;;;;;;3.89;78.41;101533.00;5093916;28;20224;-64
2022/01/16 07:00:27;;;;;;;52.03;22.13;;;;;;;3.74;78.67;101533.78;5094729;28;20528;-64
2022/01/16 07:02:55;;;;;;;54.60;22.83;;;;;;;3.72;79.10;101536.50;5100165;28;20209;-64
2022/01/16 07:05:23;;;;;;;46.03;21.00;;;;;;;3.72;78.27;101530.41;5094044;28;20698;-64
2022/01/16 07:07:52;;;;;;;45.53;19.70;;;;;;;3.79;79.05;101539.66;5094082;28;20713;-64
2022/01/16 07:10:20;;;;;;;47.47;20.07;;;;;;;3.78;78.70;101541.41;5092709;28;20311;-64
2022/01/16 07:12:48;;;;;;;50.33;21.40;;;;;;;3.57;79.77;101546.91;5096368;28;20249;-64
2022/01/16 07:15:17;;;;;;;53.17;23.33;;;;;;;3.60;80.32;101552.03;5093941;28;20208;-63
2022/01/16 07:17:45;;;;;;;51.47;22.17;;;;;;;3.86;78.73;101562.03;5093915;28;21310;-64
2022/01/16 07:20:14;;;;;;;47.40;20.33;;;;;;;3.60;79.91;101563.38;5092801;28;20678;-64
2022/01/16 07:22:42;;;;;;;48.47;21.67;;;;;;;3.57;80.08;101570.53;5096424;28;20273;-64
2022/01/16 07:25:12;;;;;;;52.80;21.00;;;;;;;3.64;80.86;101553.56;5096450;28;20337;-64
2022/01/16 07:27:41;;;;;;;50.13;20.90;;;;;;;3.30;80.44;101565.72;5096560;28;20770;-64
2022/01/16 07:30:10;;;;;;;51.23;21.10;;;;;;;3.46;81.09;101575.44;5090038;28;20216;-64
2022/01/16 07:32:38;;;;;;;50.00;22.00;;;;;;;3.76;80.48;101579.19;5098340;27;20299;-64
2022/01/16 07:35:07;;;;;;;50.60;21.67;;;;;;;3.76;79.27;101590.53;5096803;28;20205;-63
2022/01/16 07:37:55;;;;;;;56.57;20.57;;;;;;;3.61;80.08;101599.13;5094573;28;20210;-64
2022/01/16 07:40:24;;;;;;;55.67;22.47;;;;;;;3.67;79.79;101600.63;5095076;28;20211;-64
2022/01/16 07:42:53;;;;;;;50.80;21.87;;;;;;;3.37;81.58;101603.81;5093711;28;20616;-64
2022/01/16 07:45:21;;;;;;;55.43;22.83;;;;;;;3.73;80.48;101605.56;5097251;27;20555;-64
2022/01/16 07:47:49;;;;;;;55.53;24.47;;;;;;;3.55;80.66;101619.59;5097602;28;20229;-64
2022/01/16 07:50:17;;;;;;;50.83;21.60;;;;;;;3.53;81.02;101618.81;5096235;28;20645;-64
2022/01/16 07:52:47;;;;;;;52.27;21.97;;;;;;;3.71;79.96;101624.00;5093295;28;20258;-64
2022/01/16 07:55:17;;;;;;;52.83;22.63;;;;;;;3.72;79.68;101622.22;5093469;28;20214;-66
2022/01/16 07:57:46;;;;;;;51.23;21.60;;;;;;;4.00;78.77;101619.06;5097917;28;20232;-63
2022/01/16 08:00:31;;;;;;;53.40;22.10;;;;;;;3.76;79.31;101621.16;5094118;28;20266;-64
2022/01/16 08:02:59;;;;;;;55.07;22.07;;;;;;;3.95;78.90;101627.19;5094213;28;20309;-60
2022/01/16 08:05:27;;;;;;;54.53;21.87;;;;;;;3.78;78.83;101625.38;5095466;28;20859;-60
2022/01/16 08:07:55;;;;;;;56.00;21.73;;;;;;;4.05;77.97;101604.75;5094492;28;20268;-61
2022/01/16 08:10:23;;;;;;;53.90;22.37;;;;;;;3.97;77.55;101612.19;5104609;28;20292;-61
2022/01/16 08:12:52;;;;;;;49.10;21.60;;;;;;;3.87;78.25;101610.94;5095093;28;20246;-60
2022/01/16 08:15:20;;;;;;;60.73;24.97;;;;;;;4.00;78.51;101608.56;5097242;28;20300;-61
2022/01/16 08:17:48;;;;;;;55.53;22.40;;;;;;;3.94;77.78;101601.88;5101851;28;20212;-61
2022/01/16 08:20:15;;;;;;;57.33;22.27;;;;;;;3.42;79.45;101602.75;5108213;28;20219;-60
2022/01/16 08:22:45;;;;;;;53.13;21.93;;;;;;;3.98;78.23;101603.38;5094208;28;21735;-61
2022/01/16 08:25:13;;;;;;;49.30;21.37;;;;;;;3.78;78.82;101606.19;5090540;28;20241;-60
2022/01/16 08:27:41;;;;;;;52.37;22.43;;;;;;;4.06;77.75;101610.88;5089861;28;20354;-61
2022/01/16 08:30:12;;;;;;;52.77;21.97;;;;;;;3.79;78.01;101621.84;5096589;28;20228;-61
2022/01/16 08:32:43;;;;;;;51.83;20.37;;;;;;;3.82;77.79;101620.84;5094940;28;20205;-61
2022/01/16 08:35:12;;;;;;;51.70;22.00;;;;;;;3.81;78.29;101619.13;5095669;28;20213;-61
2022/01/16 08:37:40;;;;;;;50.87;22.60;;;;;;;3.98;77.10;101627.00;5098486;28;20728;-61
2022/01/16 08:40:10;;;;;;;54.13;21.23;;;;;;;4.15;76.49;101634.88;5098117;28;20257;-61
2022/01/16 08:42:40;;;;;;;52.97;21.80;;;;;;;3.93;77.53;101639.53;5104636;28;20209;-61
2022/01/16 08:45:10;;;;;;;54.13;22.47;;;;;;;4.03;76.91;101640.75;5096790;28;20270;-61
2022/01/16 08:47:38;;;;;;;50.90;22.37;;;;;;;4.01;76.55;101647.00;5103750;28;20229;-61
2022/01/16 08:50:09;;;;;;;47.07;19.83;;;;;;;3.90;77.15;101655.41;5089598;28;20304;-60
2022/01/16 08:52:38;;;;;;;48.93;20.33;;;;;;;3.71;77.53;101665.97;5099948;28;20209;-61
2022/01/16 08:55:07;;;;;;;48.67;20.43;;;;;;;3.77;78.34;101657.81;5105998;28;20276;-60
2022/01/16 08:57:35;;;;;;;50.70;21.30;;;;;;;3.84;78.56;101666.22;5104334;28;20234;-61
2022/01/16 09:00:05;;;;;;;53.43;21.40;;;;;;;3.81;78.12;101669.00;5106462;28;20238;-61
2022/01/16 09:02:34;;;;;;;49.67;20.80;;;;;;;3.88;77.97;101682.66;5110359;27;20220;-61
2022/01/16 09:05:02;;;;;;;46.47;20.80;;;;;;;3.92;77.29;101678.97;5118397;27;20679;-63
2022/01/16 09:07:30;;;;;;;51.20;20.60;;;;;;;4.12;77.09;101677.06;5107172;28;20231;-61
2022/01/16 09:09:59;;;;;;;48.93;21.23;;;;;;;4.12;76.89;101681.44;5108005;27;20275;-60
2022/01/16 09:12:28;;;;;;;47.13;20.33;;;;;;;3.94;77.01;101683.22;5107585;28;20223;-61
2022/01/16 09:14:56;;;;;;;44.27;20.10;;;;;;;3.72;78.07;101677.31;5107677;28;20646;-61
2022/01/16 09:17:24;;;;;;;44.50;19.07;;;;;;;4.02;76.99;101682.84;5107779;27;20745;-60
2022/01/16 09:19:56;;;;;;;46.03;19.23;;;;;;;4.03;76.45;101679.28;5109252;27;20213;-61
2022/01/16 09:22:24;;;;;;;48.47;19.57;;;;;;;4.08;76.22;101686.00;5107442;28;20293;-61
2022/01/16 09:24:51;;;;;;;49.23;20.13;;;;;;;4.13;76.02;101686.59;5098923;27;20214;-60
2022/01/16 09:27:19;;;;;;;50.27;20.07;;;;;;;3.56;77.81;101692.94;5110772;27;20320;-63
2022/01/16 09:29:47;;;;;;;43.37;18.70;;;;;;;3.96;76.21;101697.09;5103651;27;20220;-61
2022/01/16 09:32:16;;;;;;;40.70;17.73;;;;;;;4.01;76.36;101695.09;5105659;28;20206;-61
2022/01/16 09:34:44;;;;;;;41.50;17.77;;;;;;;3.90;76.32;101702.66;5106532;28;20333;-61
2022/01/16 09:37:13;;;;;;;36.27;16.63;;;;;;;4.13;75.38;101714.66;5093924;28;20915;-61
2022/01/16 09:39:41;;;;;;;43.23;19.47;;;;;;;4.05;75.04;101709.75;5105600;28;20296;-61
2022/01/16 09:42:10;;;;;;;40.77;18.07;;;;;;;4.27;74.48;101706.06;5105753;28;20211;-61
2022/01/16 09:44:39;;;;;;;41.80;18.27;;;;;;;3.92;75.05;101713.94;5123775;27;20714;-61
2022/01/16 09:47:09;;;;;;;35.90;17.00;;;;;;;4.05;74.78;101717.63;5106801;28;20241;-62
2022/01/16 09:49:37;;;;;;;38.67;17.27;;;;;;;3.90;75.74;101725.41;5100433;28;20213;-61
2022/01/16 09:52:06;;;;;;;33.57;17.00;;;;;;;4.02;75.62;101720.44;5104519;27;20300;-61
2022/01/16 09:54:36;;;;;;;41.47;17.57;;;;;;;3.66;76.10;101741.44;5100719;28;20228;-60
2022/01/16 09:57:05;;;;;;;42.20;18.20;;;;;;;3.89;75.70;101731.59;5104296;28;20678;-62
2022/01/16 09:59:33;;;;;;;37.40;17.47;;;;;;;4.00;75.53;101724.06;5102024;28;20301;-61
2022/01/16 10:02:01;;;;;;;42.97;17.13;;;;;;;3.88;75.24;101732.50;5103663;28;20713;-61
2022/01/16 10:04:33;;;;;;;38.53;16.60;;;;;;;4.06;74.87;101731.63;5104286;28;20214;-61
2022/01/16 10:07:04;;;;;;;37.37;16.73;;;;;;;3.85;74.97;101735.31;5105576;28;20216;-60
2022/01/16 10:09:32;;;;;;;33.50;16.03;;;;;;;3.94;75.13;101733.09;5107058;28;20201;-60
2022/01/16 10:12:14;;;;;;;35.97;16.53;;;;;;;3.79;75.42;101729.41;5096076;27;20350;-60
2022/01/16 10:14:47;;;;;;;35.40;15.73;;;;;;;4.02;75.44;101716.97;5116818;27;20722;-60
2022/01/16 10:17:18;;;;;;;33.83;16.60;;;;;;;4.12;74.97;101721.69;5096791;27;20210;-60
2022/01/16 10:19:46;;;;;;;36.53;16.90;;;;;;;4.10;75.00;101731.41;5101995;28;20573;-61
2022/01/16 10:22:15;;;;;;;43.13;16.47;;;;;;;4.07;74.95;101726.28;5112703;27;20206;-61
2022/01/16 10:24:44;;;;;;;34.37;17.03;;;;;;;4.06;75.48;101723.72;5106587;28;20304;-59
2022/01/16 10:27:18;;;;;;;38.53;17.57;;;;;;;4.19;74.71;101726.63;5109503;27;20631;-60
2022/01/16 10:29:49;;;;;;;44.10;18.87;;;;;;;4.16;74.77;101720.59;5104070;27;20596;-61
2022/01/16 10:32:21;;;;;;;39.43;17.40;;;;;;;4.06;75.60;101724.59;5105560;28;20346;-61
2022/01/16 10:34:51;;;;;;;42.80;17.53;;;;;;;4.46;74.51;101730.47;5086644;28;20744;-59
2022/01/16 10:37:27;;;;;;;40.13;18.00;;;;;;;4.30;74.63;101724.31;5107232;28;20221;-61
2022/01/16 10:39:58;;;;;;;39.77;18.07;;;;;;;4.28;74.70;101729.63;5114211;27;20307;-61
2022/01/16 10:42:29;;;;;;;40.03;18.63;;;;;;;4.53;74.34;101730.06;5101643;28;20240;-61
2022/01/16 10:45:01;;;;;;;47.70;20.60;;;;;;;4.12;74.80;101734.81;5101275;28;20205;-62
2022/01/16 10:47:33;;;;;;;45.03;20.13;;;;;;;4.17;75.18;101742.44;5102634;27;20205;-61
2022/01/16 10:50:13;;;;;;;43.63;19.03;;;;;;;3.99;76.15;101743.34;5100458;28;20198;-60
2022/01/16 10:52:51;;;;;;;42.83;19.43;;;;;;;4.22;75.78;101734.34;5109642;27;20205;-61
2022/01/16 10:55:20;;;;;;;42.17;18.13;;;;;;;4.21;75.35;101730.88;5109557;27;20212;-61
2022/01/16 10:57:50;;;;;;;43.03;17.67;;;;;;;4.02;76.04;101743.19;5101918;27;20739;-60
2022/01/16 11:00:20;;;;;;;44.73;19.00;;;;;;;4.23;75.08;101726.38;5102761;28;20203;-61
2022/01/16 11:02:50;;;;;;;37.70;17.03;;;;;;;4.28;74.89;101740.13;5107241;27;20210;-61
2022/01/16 11:05:21;;;;;;;35.90;18.17;;;;;;;3.93;75.83;101739.25;5106234;28;20205;-61
2022/01/16 11:07:59;;;;;;;39.17;18.03;;;;;;;4.09;75.86;101731.47;5098701;28;20674;-61
2022/01/16 11:10:29;;;;;;;32.87;15.60;;;;;;;3.93;76.09;101718.25;5107581;27;20692;-61
2022/01/16 11:13:00;;;;;;;36.67;16.70;;;;;;;3.83;76.84;101731.91;5099578;27;20250;-61
2022/01/16 11:15:28;;;;;;;38.47;17.23;;;;;;;4.06;76.29;101724.59;5110763;27;20212;-63
2022/01/16 11:17:57;;;;;;;35.37;15.23;;;;;;;4.22;75.83;101729.94;5097150;28;20297;-61
2022/01/16 11:20:31;;;;;;;35.07;16.83;;;;;;;4.36;75.18;101726.63;5101778;28;20209;-62
2022/01/16 11:23:05;;;;;;;36.90;15.93;;;;;;;4.26;74.91;101733.25;5103738;28;20258;-62
2022/01/16 11:25:36;;;;;;;33.87;15.43;;;;;;;4.41;74.75;101729.84;5104126;28;20321;-61
2022/01/16 11:28:08;;;;;;;33.40;16.23;;;;;;;4.13;75.62;101727.78;5103311;28;20311;-62
2022/01/16 11:30:39;;;;;;;34.43;15.30;;;;;;;4.36;75.35;101737.13;5105883;28;20635;-63
2022/01/16 11:33:07;;;;;;;31.97;15.20;;;;;;;4.23;75.66;101736.03;5086250;28;20214;-63
2022/01/16 11:35:41;;;;;;;36.27;15.57;;;;;;;4.33;75.25;101732.00;5097929;28;20271;-63
2022/01/16 11:38:10;;;;;;;34.10;15.30;;;;;;;4.12;76.06;101740.06;5115564;27;20248;-62
2022/01/16 11:40:44;;;;;;;34.83;15.80;;;;;;;4.18;76.82;101743.28;5105483;27;20342;-61
2022/01/16 11:43:24;;;;;;;33.20;15.77;;;;;;;4.29;75.79;101735.72;5105770;28;20209;-59
2022/01/16 11:46:05;;;;;;;32.77;16.67;;;;;;;4.09;76.11;101736.72;5106338;28;20220;-63
2022/01/16 11:48:53;;;;;;;29.27;14.53;;;;;;;4.06;76.87;101735.09;5101402;28;20304;-62
2022/01/16 11:51:53;;;;;;;29.77;13.40;;;;;;;4.13;76.81;101736.47;5099915;28;20208;-62
2022/01/16 11:54:23;;;;;;;32.97;15.90;;;;;;;4.47;75.86;101733.03;5098289;28;20922;-61
2022/01/16 11:57:00;;;;;;;30.60;13.87;;;;;;;4.23;76.90;101741.28;5101317;28;20207;-61
2022/01/16 11:59:37;;;;;;;31.30;15.67;;;;;;;4.40;76.01;101736.03;5105414;28;20221;-61
2022/01/16 12:02:21;;;;;;;31.90;16.03;;;;;;;4.35;76.51;101740.66;5105624;28;20231;-63
2022/01/16 12:05:04;;;;;;;32.43;14.67;;;;;;;4.52;76.58;101748.53;5100612;28;20217;-61